Kathryn, ND (58049)

1:51 PM CST on February 11, 2016 (GMT -0600)
Valley City | | Change Station
CLOSE
Current Station
Airport
Location: Valley City,
Elevation: 1401 ft
Nearby Weather Stations

Elev 1401 ft 46.94 °N, 98.02 °W | Updated 16 minutes ago

Overcast
Overcast
12 °F
Feels Like 6 °F
N
4
Wind Variable Wind from SSW

Today
High -- | Low -- °F
--% Chance of Precip.
Yesterday
High -- | Low -- °F
Precip. -- in
Pressure 30.18 in
Visibility 10.0 miles
Clouds Mostly Cloudy 1000 ft
Overcast 2300 ft
Windchill 6 °F
Dew Point 9 °F
Humidity 85%
Rainfall 0.00 in
Snow Depth Not available.
7:42 AM 5:50 PM
Waxing Crescent, 14% visible
METAR KBAC 111935Z AUTO 20003KT 10SM BKN010 OVC023 M11/M13 A3018 RMK AO2
Pressure 30.18 in
Visibility 10.0 miles
Clouds Mostly Cloudy 1000 ft
Overcast 2300 ft
Windchill 6 °F
Dew Point 9 °F
Humidity 85%
Rainfall 0.00 in
Snow Depth Not available.
7:42 AM 5:50 PM
Waxing Crescent, 14% visible
METAR KBAC 111935Z AUTO 20003KT 10SM BKN010 OVC023 M11/M13 A3018 RMK AO2

10-Day Weather Forecast

Almanac

Astronomy

Feb. 11, 2016 Rise Set
Actual Time
Civil Twilight
Nautical Twilight
Astronomical Twilight
Moon
Length of Visible Light
Length of Day
Tomorrow will be .
, % of the Moon is Illuminated

Today's Extremes

State Highs State Lows

Community

WunderPhotos

Upload Photos

1,892,142 photos uploaded!

WunderBlog® & News

Nearby

Air Quality

  Air Quality AQ Index Pollutant
Not available.

Snow Depth

Station Depth Elevation

Earthquake Activity

City Distance Mag. Time & Date
Minimum magnitude displayed is 2.5.

Coastal Water Temperatures

Place Temperature

Stations

Nearby Weather Stations

Station Location Temp. Windchill Dew Point Humidity Wind Precip. Elev Updated Type
                   

Watches & Warnings

There are currently no watches in effect.